Time;durP1;ratioP1;P1;durP2;ratioP2;P2;SDS_P1;SDS_P2;PMS_P1;PMS_P2;Temp;Humidity;BMP_temperature;BMP_pressure;BME280_temperature;BME280_humidity;BME280_pressure;Samples;Min_cycle;Max_cycle;Signal;HPM_P1;HPM_P2
2023/03/23 00:01:36;;;;;;;2.83;2.10;;;12.30;99.90;;;;;;5054378;28;20172;-36
2023/03/23 00:04:03;;;;;;;2.57;2.20;;;12.30;99.90;;;;;;5051097;28;20243;-37
2023/03/23 00:06:34;;;;;;;2.70;2.00;;;12.20;99.90;;;;;;5072437;28;20199;-37
2023/03/23 00:09:02;;;;;;;3.83;2.40;;;12.20;99.90;;;;;;5069237;28;20196;-37
2023/03/23 00:11:30;;;;;;;3.83;2.40;;;12.20;99.90;;;;;;5064294;28;20292;-39
2023/03/23 00:14:00;;;;;;;3.17;2.20;;;12.20;99.90;;;;;;5049179;28;20177;-37
2023/03/23 00:16:30;;;;;;;5.07;2.63;;;12.20;99.90;;;;;;5070599;28;20189;-36
2023/03/23 00:19:01;;;;;;;4.47;3.07;;;12.10;99.90;;;;;;5069908;28;20220;-37
2023/03/23 00:21:33;;;;;;;4.10;3.57;;;12.00;99.90;;;;;;5065324;28;20188;-37
2023/03/23 00:24:10;;;;;;;3.40;2.80;;;12.00;99.90;;;;;;5050549;28;20177;-36
2023/03/23 00:26:40;;;;;;;2.80;2.50;;;12.00;99.90;;;;;;5055241;28;20231;-38
2023/03/23 00:29:21;;;;;;;2.87;2.27;;;11.90;99.90;;;;;;5069705;28;20184;-36
2023/03/23 00:31:50;;;;;;;2.80;2.40;;;11.90;99.90;;;;;;5065704;28;20175;-38
2023/03/23 00:34:19;;;;;;;2.30;2.07;;;11.90;99.90;;;;;;5069202;28;20172;-35
2023/03/23 00:36:49;;;;;;;2.60;2.40;;;11.90;99.90;;;;;;5052964;28;20208;-35
2023/03/23 00:39:16;;;;;;;2.13;1.90;;;12.00;99.90;;;;;;5082568;28;20219;-36
2023/03/23 00:41:46;;;;;;;2.57;2.10;;;12.00;99.90;;;;;;5066089;28;20172;-40
2023/03/23 00:44:19;;;;;;;2.47;1.97;;;12.10;99.90;;;;;;5033076;28;20180;-37
2023/03/23 00:46:49;;;;;;;2.70;1.90;;;12.10;99.90;;;;;;5050618;28;20196;-35
2023/03/23 00:49:17;;;;;;;3.20;2.00;;;12.10;99.90;;;;;;5051131;28;20246;-35
2023/03/23 00:51:43;;;;;;;2.27;1.93;;;12.10;99.90;;;;;;5086484;28;20223;-37
2023/03/23 00:54:10;;;;;;;4.60;2.40;;;12.10;99.90;;;;;;5068344;28;20208;-37
2023/03/23 00:56:36;;;;;;;2.40;2.20;;;12.10;99.90;;;;;;5052072;28;20323;-37
2023/03/23 00:59:03;;;;;;;2.50;2.30;;;12.10;99.90;;;;;;5069399;28;20205;-37
2023/03/23 01:01:29;;;;;;;2.40;2.13;;;12.10;99.90;;;;;;5051037;28;20336;-36
2023/03/23 01:04:00;;;;;;;2.63;2.07;;;12.10;99.90;;;;;;5049193;28;20275;-37
2023/03/23 01:06:31;;;;;;;2.80;2.40;;;12.10;99.90;;;;;;5067590;28;20192;-35
2023/03/23 01:08:58;;;;;;;2.27;2.07;;;12.10;99.90;;;;;;5068897;28;20196;-37
2023/03/23 01:11:24;;;;;;;3.33;2.23;;;12.10;99.90;;;;;;5068742;28;20194;-35
2023/03/23 01:13:50;;;;;;;3.30;2.43;;;12.00;99.90;;;;;;5050178;28;20193;-36
2023/03/23 01:16:18;;;;;;;3.43;1.93;;;12.00;99.90;;;;;;5064482;28;20219;-37
2023/03/23 01:18:44;;;;;;;2.40;2.07;;;11.90;99.90;;;;;;5052184;28;20201;-37
2023/03/23 01:21:14;;;;;;;3.03;2.30;;;11.90;99.90;;;;;;5037952;28;20548;-37
2023/03/23 01:23:40;;;;;;;1.93;1.63;;;11.90;99.90;;;;;;5049627;28;20230;-36
2023/03/23 01:26:19;;;;;;;2.63;2.10;;;11.90;99.90;;;;;;5068901;28;20218;-37
2023/03/23 01:28:45;;;;;;;3.67;1.93;;;11.90;99.90;;;;;;5085120;28;20279;-36
2023/03/23 01:31:13;;;;;;;2.40;2.20;;;11.90;99.90;;;;;;5052560;28;20192;-35
2023/03/23 01:33:40;;;;;;;3.53;2.20;;;11.90;99.90;;;;;;5052891;28;20208;-37
2023/03/23 01:36:10;;;;;;;2.33;2.10;;;11.90;99.90;;;;;;5072235;28;20272;-38
2023/03/23 01:38:37;;;;;;;2.30;1.90;;;12.00;99.90;;;;;;5072372;28;20204;-36
2023/03/23 01:41:04;;;;;;;2.73;2.00;;;11.90;99.90;;;;;;5053947;28;20184;-35
2023/03/23 01:43:31;;;;;;;2.23;1.80;;;11.90;99.90;;;;;;5052327;28;20180;-37
2023/03/23 01:45:57;;;;;;;3.10;2.00;;;11.90;99.90;;;;;;5053847;28;20181;-35
2023/03/23 01:48:41;;;;;;;3.00;1.80;;;12.00;99.90;;;;;;5068327;28;20176;-37
2023/03/23 01:51:15;;;;;;;2.10;1.90;;;12.00;99.90;;;;;;5072308;28;20264;-37
2023/03/23 01:53:51;;;;;;;2.63;1.80;;;12.00;99.90;;;;;;5079079;28;20184;-35
2023/03/23 01:56:24;;;;;;;3.87;2.13;;;11.90;99.90;;;;;;5051816;28;20216;-38
2023/03/23 01:58:52;;;;;;;2.93;2.13;;;12.00;99.90;;;;;;5062587;28;20209;-36
2023/03/23 02:01:21;;;;;;;5.10;3.70;;;12.00;99.90;;;;;;5071831;28;20188;-37
2023/03/23 02:03:48;;;;;;;5.10;3.87;;;11.90;99.90;;;;;;5062262;28;20175;-35
2023/03/23 02:06:15;;;;;;;6.00;4.20;;;11.90;99.90;;;;;;5052089;28;20286;-35
2023/03/23 02:09:07;;;;;;;4.80;3.40;;;11.90;99.90;;;;;;5061137;28;20192;-37
2023/03/23 02:11:33;;;;;;;5.07;3.70;;;11.80;99.90;;;;;;5053560;28;20187;-35
2023/03/23 02:14:01;;;;;;;5.63;3.80;;;11.80;99.90;;;;;;5051509;28;20188;-37
2023/03/23 02:17:01;;;;;;;3.93;3.50;;;11.80;99.90;;;;;;5069068;28;20198;-36
2023/03/23 02:20:28;;;;;;;5.27;3.17;;;11.70;99.90;;;;;;5051151;28;20204;-35
2023/03/23 02:23:18;;;;;;;4.17;3.17;;;11.70;99.90;;;;;;4969142;28;20309;-41
2023/03/23 02:25:47;;;;;;;3.63;2.97;;;11.60;99.90;;;;;;5058161;28;20212;-35
2023/03/23 02:28:31;;;;;;;3.70;2.73;;;11.60;99.90;;;;;;5071876;28;20179;-35
2023/03/23 02:31:06;;;;;;;4.10;2.50;;;11.70;99.90;;;;;;5087088;28;20174;-35
2023/03/23 02:33:54;;;;;;;3.00;2.47;;;11.60;99.90;;;;;;5071447;28;20178;-37
2023/03/23 02:36:20;;;;;;;2.77;2.40;;;11.60;99.90;;;;;;5044532;28;20759;-36
2023/03/23 02:39:00;;;;;;;3.10;2.40;;;11.70;99.90;;;;;;5051525;28;20763;-37
2023/03/23 02:41:30;;;;;;;4.77;2.20;;;11.70;99.90;;;;;;5060925;28;20174;-36
2023/03/23 02:43:57;;;;;;;2.73;2.20;;;11.70;99.90;;;;;;5040471;28;20186;-35
2023/03/23 02:46:25;;;;;;;2.50;1.97;;;11.70;99.90;;;;;;5033458;28;20707;-38
2023/03/23 02:48:56;;;;;;;2.80;2.00;;;11.80;99.90;;;;;;5068336;28;20194;-35
2023/03/23 02:51:23;;;;;;;2.20;1.70;;;11.80;99.90;;;;;;5051619;28;20189;-37
2023/03/23 02:53:53;;;;;;;4.70;2.00;;;11.80;99.90;;;;;;5058686;28;20270;-37
2023/03/23 02:56:20;;;;;;;4.00;1.87;;;11.80;99.90;;;;;;5054178;28;20621;-36
2023/03/23 02:58:47;;;;;;;2.63;1.90;;;11.80;99.90;;;;;;5064595;28;20208;-37
2023/03/23 03:01:33;;;;;;;2.17;1.80;;;11.80;99.90;;;;;;5051129;28;20184;-37
2023/03/23 03:04:30;;;;;;;3.57;2.17;;;11.80;99.90;;;;;;5056608;28;20188;-37
2023/03/23 03:07:29;;;;;;;2.77;2.17;;;11.70;99.90;;;;;;5049464;28;20196;-37
2023/03/23 03:09:55;;;;;;;2.00;1.70;;;11.80;99.90;;;;;;5047697;28;20193;-35
2023/03/23 03:12:41;;;;;;;2.63;1.80;;;11.80;99.90;;;;;;5051055;28;20181;-39
2023/03/23 03:15:14;;;;;;;2.27;1.73;;;11.80;99.90;;;;;;5051453;28;20261;-37
2023/03/23 03:17:47;;;;;;;2.03;1.87;;;11.90;99.90;;;;;;5066771;28;20238;-37
2023/03/23 03:20:14;;;;;;;2.97;1.93;;;11.90;99.90;;;;;;5050792;28;20215;-36
2023/03/23 03:22:44;;;;;;;2.67;2.00;;;11.90;99.90;;;;;;5067091;28;20228;-35
2023/03/23 03:25:13;;;;;;;2.10;1.90;;;11.80;99.90;;;;;;5070622;28;20239;-36
2023/03/23 03:27:40;;;;;;;3.77;2.00;;;11.80;99.90;;;;;;5038010;28;20193;-36
2023/03/23 03:30:16;;;;;;;2.17;1.90;;;11.80;99.90;;;;;;5050561;28;20176;-36
2023/03/23 03:32:48;;;;;;;2.83;2.20;;;11.80;99.90;;;;;;5065793;28;20210;-36
2023/03/23 03:35:15;;;;;;;1.93;1.70;;;11.80;99.90;;;;;;5070233;28;20179;-35
2023/03/23 03:37:42;;;;;;;2.13;1.73;;;11.80;99.90;;;;;;5039032;28;20196;-37
2023/03/23 03:40:11;;;;;;;3.17;1.87;;;11.80;99.90;;;;;;5050143;28;20183;-37
2023/03/23 03:42:40;;;;;;;2.23;1.70;;;11.80;99.90;;;;;;5049482;28;20181;-37
2023/03/23 03:45:11;;;;;;;1.60;1.40;;;11.80;99.90;;;;;;5029764;28;20180;-38
2023/03/23 03:47:37;;;;;;;2.73;1.57;;;11.80;99.90;;;;;;5062729;28;20230;-37
2023/03/23 03:50:03;;;;;;;2.00;1.70;;;11.80;99.90;;;;;;5087014;28;20180;-38
2023/03/23 03:52:31;;;;;;;3.77;1.80;;;11.80;99.90;;;;;;5075100;28;20177;-38
2023/03/23 03:54:58;;;;;;;1.60;1.50;;;11.90;99.90;;;;;;5049962;28;20183;-36
2023/03/23 03:57:26;;;;;;;2.33;1.53;;;11.90;99.90;;;;;;5059793;28;20224;-37
2023/03/23 04:00:19;;;;;;;2.43;1.40;;;12.00;99.90;;;;;;5057321;28;20198;-35
2023/03/23 04:02:54;;;;;;;2.70;1.70;;;12.10;99.90;;;;;;5086051;28;20180;-37
2023/03/23 04:05:41;;;;;;;2.20;1.40;;;12.20;99.90;;;;;;5053169;28;20185;-37
2023/03/23 04:08:07;;;;;;;1.70;1.50;;;12.20;99.90;;;;;;5035208;28;20177;-37
2023/03/23 04:10:33;;;;;;;1.80;1.50;;;12.20;99.90;;;;;;5046623;28;20188;-36
2023/03/23 04:13:00;;;;;;;2.10;1.60;;;12.20;99.90;;;;;;5047915;28;20199;-35
2023/03/23 04:15:26;;;;;;;1.60;1.50;;;12.30;99.90;;;;;;5050697;28;20189;-36
2023/03/23 04:17:52;;;;;;;2.23;1.50;;;12.30;99.90;;;;;;5080067;28;20212;-37
2023/03/23 04:20:19;;;;;;;2.43;1.80;;;12.30;99.90;;;;;;5086545;28;20183;-36
2023/03/23 04:22:49;;;;;;;2.37;1.50;;;12.30;99.90;;;;;;5067942;28;20188;-38
2023/03/23 04:25:20;;;;;;;2.37;1.53;;;12.20;99.90;;;;;;5069689;28;20176;-37
2023/03/23 04:27:52;;;;;;;2.33;1.30;;;12.20;99.90;;;;;;5074922;28;20197;-37
2023/03/23 04:30:22;;;;;;;1.60;1.40;;;12.20;99.90;;;;;;5061957;28;20180;-36
2023/03/23 04:33:01;;;;;;;1.47;1.37;;;12.20;99.90;;;;;;5068066;28;20180;-37
2023/03/23 04:35:29;;;;;;;2.00;1.47;;;12.20;99.90;;;;;;5069919;28;20190;-35
2023/03/23 04:38:20;;;;;;;2.03;1.50;;;12.20;99.90;;;;;;5056236;28;20341;-37
2023/03/23 04:40:58;;;;;;;1.83;1.40;;;12.20;99.90;;;;;;5033459;28;20259;-36
2023/03/23 04:43:46;;;;;;;1.50;1.40;;;12.30;99.90;;;;;;5047999;28;20200;-36
2023/03/23 04:46:28;;;;;;;2.57;1.43;;;12.30;99.90;;;;;;5066056;28;20200;-37
2023/03/23 04:48:59;;;;;;;1.80;1.47;;;12.30;99.90;;;;;;5068943;28;20195;-37
2023/03/23 04:51:32;;;;;;;3.20;1.90;;;12.30;99.90;;;;;;5066609;28;20180;-36
2023/03/23 04:54:12;;;;;;;1.73;1.23;;;12.40;99.90;;;;;;5053926;28;20272;-37
2023/03/23 04:56:41;;;;;;;1.93;1.80;;;12.40;99.90;;;;;;5065563;28;20255;-36
2023/03/23 04:59:13;;;;;;;2.23;1.80;;;12.40;99.90;;;;;;5047821;28;20216;-36
2023/03/23 05:01:52;;;;;;;2.57;1.40;;;12.40;99.90;;;;;;5048926;28;20172;-36
2023/03/23 05:04:20;;;;;;;2.50;1.70;;;12.40;99.90;;;;;;5047958;28;20232;-36
2023/03/23 05:06:57;;;;;;;1.73;1.60;;;12.40;99.90;;;;;;5056481;28;20204;-36
2023/03/23 05:09:27;;;;;;;2.00;1.80;;;12.40;99.90;;;;;;5057034;28;20178;-35
2023/03/23 05:11:53;;;;;;;1.60;1.50;;;12.40;99.90;;;;;;5070159;28;20239;-37
2023/03/23 05:14:21;;;;;;;2.33;1.80;;;12.40;99.90;;;;;;5052370;28;20193;-37
2023/03/23 05:17:00;;;;;;;2.17;1.80;;;12.40;99.90;;;;;;5069141;28;20197;-37
2023/03/23 05:19:27;;;;;;;3.40;1.77;;;12.40;99.90;;;;;;5056889;28;20211;-36
2023/03/23 05:22:02;;;;;;;2.50;1.90;;;12.40;99.90;;;;;;5088705;28;20191;-37
2023/03/23 05:24:32;;;;;;;3.10;1.83;;;12.30;99.90;;;;;;5055015;28;20205;-38
2023/03/23 05:27:03;;;;;;;2.23;1.80;;;12.30;99.90;;;;;;5056533;28;20192;-37
2023/03/23 05:29:33;;;;;;;3.40;1.83;;;12.30;99.90;;;;;;5053355;28;20257;-36
2023/03/23 05:32:00;;;;;;;2.93;1.73;;;12.30;99.90;;;;;;5052662;28;20196;-38
2023/03/23 05:34:28;;;;;;;2.20;1.57;;;12.30;99.90;;;;;;5051900;28;20188;-37
2023/03/23 05:36:57;;;;;;;2.70;1.77;;;12.30;99.90;;;;;;5039016;28;20198;-37
2023/03/23 05:39:44;;;;;;;3.10;1.60;;;12.30;99.90;;;;;;5041285;28;20208;-36
2023/03/23 05:42:25;;;;;;;3.07;1.80;;;12.30;99.90;;;;;;5056975;28;20195;-36
2023/03/23 05:45:04;;;;;;;2.67;1.60;;;12.30;99.90;;;;;;5034577;28;20291;-36
2023/03/23 05:47:31;;;;;;;2.10;1.70;;;12.30;99.90;;;;;;5063851;28;20198;-38
2023/03/23 05:50:06;;;;;;;3.97;1.90;;;12.30;99.90;;;;;;5044950;28;20227;-37
2023/03/23 05:52:36;;;;;;;3.03;1.97;;;12.30;99.90;;;;;;5044864;28;20226;-35
2023/03/23 05:55:05;;;;;;;2.57;2.03;;;12.30;99.90;;;;;;5036861;28;20196;-37
2023/03/23 05:57:35;;;;;;;3.83;1.80;;;12.20;99.90;;;;;;5054896;28;20267;-36
2023/03/23 06:00:22;;;;;;;2.03;1.67;;;12.30;99.90;;;;;;5052159;28;20173;-35
2023/03/23 06:02:56;;;;;;;2.53;1.83;;;12.30;99.90;;;;;;5064127;28;20179;-35
2023/03/23 06:05:28;;;;;;;3.47;1.60;;;12.30;99.90;;;;;;5051927;28;20204;-37
2023/03/23 06:07:55;;;;;;;5.17;2.20;;;12.40;99.90;;;;;;5071202;28;20207;-38
2023/03/23 06:10:22;;;;;;;3.03;1.93;;;12.50;99.90;;;;;;5055725;28;20268;-37
2023/03/23 06:12:54;;;;;;;1.90;1.60;;;12.50;99.90;;;;;;5063255;28;20209;-37
2023/03/23 06:15:33;;;;;;;2.37;1.50;;;12.60;99.90;;;;;;5043437;28;20196;-37
2023/03/23 06:18:03;;;;;;;1.90;1.70;;;12.70;99.90;;;;;;5054636;28;20204;-37
2023/03/23 06:20:39;;;;;;;3.33;2.00;;;12.80;99.90;;;;;;5042476;28;20276;-35
2023/03/23 06:23:25;;;;;;;2.97;1.90;;;12.90;99.90;;;;;;5051058;28;20200;-35
2023/03/23 06:26:14;;;;;;;2.30;1.60;;;13.00;99.90;;;;;;5066023;28;20205;-38
2023/03/23 06:28:44;;;;;;;2.00;1.80;;;13.00;99.90;;;;;;5051711;28;20181;-36
2023/03/23 06:31:11;;;;;;;2.77;1.77;;;13.10;99.90;;;;;;5057602;28;20189;-36
2023/03/23 06:33:40;;;;;;;3.23;2.00;;;13.10;99.90;;;;;;5068571;28;20194;-37
2023/03/23 06:36:29;;;;;;;6.40;2.17;;;13.20;99.90;;;;;;5086383;28;20211;-37
2023/03/23 06:39:19;;;;;;;3.53;1.77;;;13.20;99.90;;;;;;5070355;28;20223;-37
2023/03/23 06:41:59;;;;;;;3.67;2.00;;;13.20;99.90;;;;;;5061345;28;20190;-37
2023/03/23 07:26:05;;;;;;;2.00;1.80;;;13.80;99.90;;;;;;4991023;28;20282;-91
2023/03/23 08:19:08;;;;;;;1.87;1.77;;;15.00;99.90;;;;;;5032762;28;20293;-91
2023/03/23 08:21:34;;;;;;;3.20;1.90;;;15.10;99.90;;;;;;5033090;28;20276;-91
2023/03/23 08:24:33;;;;;;;6.17;3.67;;;15.10;99.90;;;;;;5035929;28;20175;-90
2023/03/23 08:27:13;;;;;;;2.53;2.00;;;15.20;99.90;;;;;;5033351;28;20178;-91
2023/03/23 08:30:07;;;;;;;2.97;1.80;;;15.40;99.90;;;;;;5030068;28;20213;-91
2023/03/23 08:32:51;;;;;;;2.23;1.90;;;15.50;99.90;;;;;;5036294;28;20178;-91
2023/03/23 08:35:58;;;;;;;2.00;1.80;;;15.50;99.90;;;;;;5010220;28;20283;-91
2023/03/23 08:38:40;;;;;;;2.33;1.87;;;15.40;99.90;;;;;;5033930;28;20218;-91
2023/03/23 08:41:23;;;;;;;2.77;2.03;;;15.30;99.90;;;;;;5037970;28;20179;-91
2023/03/23 08:44:08;;;;;;;2.87;2.30;;;15.30;99.90;;;;;;5036063;28;20261;-91
2023/03/23 08:46:56;;;;;;;3.33;2.17;;;15.20;99.90;;;;;;5036047;28;20257;-91
2023/03/23 08:49:52;;;;;;;2.10;1.90;;;15.20;99.90;;;;;;5038775;28;20166;-91
2023/03/23 08:52:50;;;;;;;2.97;2.03;;;15.20;99.90;;;;;;5039480;28;20174;-91
2023/03/23 08:55:34;;;;;;;2.10;1.90;;;15.20;99.90;;;;;;5036001;28;20260;-91
2023/03/23 08:58:18;;;;;;;3.33;2.20;;;15.20;99.90;;;;;;5035011;28;20245;-91
2023/03/23 09:01:06;;;;;;;2.10;1.90;;;15.20;99.90;;;;;;5035271;28;20170;-91
2023/03/23 09:03:54;;;;;;;2.67;2.27;;;15.10;99.90;;;;;;5034851;28;20192;-90
2023/03/23 09:06:25;;;;;;;4.63;1.97;;;15.20;99.90;;;;;;5034685;28;20199;-91
2023/03/23 09:08:52;;;;;;;4.40;1.93;;;15.20;99.90;;;;;;5034456;28;20205;-92
2023/03/23 09:11:18;;;;;;;4.07;1.97;;;15.20;99.90;;;;;;5035515;28;20186;-90
2023/03/23 09:13:44;;;;;;;3.53;1.90;;;15.20;99.90;;;;;;5044175;28;20261;-91
2023/03/23 09:16:10;;;;;;;2.53;1.90;;;15.20;99.90;;;;;;5034479;28;20678;-91
2023/03/23 09:18:36;;;;;;;2.63;2.00;;;15.30;99.90;;;;;;5034203;28;20246;-91
2023/03/23 09:21:03;;;;;;;2.30;1.97;;;15.30;99.90;;;;;;5034199;28;20190;-91
2023/03/23 09:23:29;;;;;;;3.10;1.70;;;15.30;99.90;;;;;;5034371;28;20179;-91
2023/03/23 09:25:56;;;;;;;2.03;1.60;;;15.30;99.90;;;;;;5034298;28;20194;-91
2023/03/23 09:28:21;;;;;;;3.67;1.70;;;15.40;99.90;;;;;;5034423;28;20178;-91
2023/03/23 09:30:48;;;;;;;2.10;1.70;;;15.40;99.90;;;;;;5034169;28;20171;-91
2023/03/23 09:33:15;;;;;;;2.40;1.93;;;15.40;99.90;;;;;;5033953;28;20181;-91
2023/03/23 09:35:42;;;;;;;2.60;1.90;;;15.40;99.90;;;;;;5050659;28;20201;-91
2023/03/23 09:38:12;;;;;;;4.33;3.13;;;15.50;99.90;;;;;;5034034;28;20203;-91
2023/03/23 09:41:03;;;;;;;2.33;1.97;;;15.40;99.90;;;;;;5033935;28;20217;-90
2023/03/23 09:43:49;;;;;;;2.27;1.97;;;15.40;99.90;;;;;;5033869;28;20163;-91
2023/03/23 09:46:24;;;;;;;2.70;1.70;;;15.40;99.90;;;;;;5028641;28;20198;-91
2023/03/23 09:48:59;;;;;;;2.27;1.50;;;15.50;99.90;;;;;;5017684;28;20189;-91
2023/03/23 09:51:46;;;;;;;2.03;1.60;;;15.60;99.90;;;;;;5033670;28;20186;-91
2023/03/23 09:54:21;;;;;;;2.23;1.50;;;15.60;99.90;;;;;;5034719;28;20232;-91
2023/03/23 09:56:49;;;;;;;2.60;1.50;;;15.70;99.90;;;;;;5017613;28;20205;-91
2023/03/23 09:59:30;;;;;;;2.63;1.50;;;15.70;99.90;;;;;;5050169;28;20206;-91
2023/03/23 10:02:10;;;;;;;1.60;1.40;;;15.70;99.90;;;;;;5017388;28;20175;-91
2023/03/23 10:04:39;;;;;;;2.07;1.43;;;15.80;99.90;;;;;;5033678;28;20337;-91
2023/03/23 10:07:17;;;;;;;2.40;1.80;;;15.80;99.90;;;;;;5033708;28;20198;-92
2023/03/23 10:09:47;;;;;;;2.17;1.53;;;15.80;99.90;;;;;;5033601;28;20182;-91
2023/03/23 10:12:12;;;;;;;2.43;1.70;;;15.90;99.90;;;;;;5039528;28;20213;-91
2023/03/23 10:15:16;;;;;;;1.77;1.63;;;15.90;99.90;;;;;;5036737;28;20224;-91
2023/03/23 10:17:54;;;;;;;2.30;1.60;;;16.10;99.90;;;;;;5053340;28;20173;-90
2023/03/23 10:20:41;;;;;;;2.90;1.47;;;16.10;99.90;;;;;;5052982;28;20186;-91
2023/03/23 10:23:14;;;;;;;1.70;1.60;;;16.10;99.90;;;;;;5036747;28;20178;-90
2023/03/23 10:26:07;;;;;;;2.03;1.63;;;16.20;99.90;;;;;;5069497;28;20217;-91
2023/03/23 10:28:38;;;;;;;2.30;1.57;;;16.20;99.90;;;;;;5012669;28;20194;-91
2023/03/23 10:31:08;;;;;;;1.80;1.60;;;16.10;99.90;;;;;;5069973;28;20276;-91
2023/03/23 10:33:44;;;;;;;2.97;1.70;;;15.90;99.90;;;;;;5069369;28;20171;-91
2023/03/23 10:36:24;;;;;;;1.80;1.40;;;15.80;99.90;;;;;;5069508;28;20201;-91
2023/03/23 10:39:21;;;;;;;1.90;1.70;;;15.80;99.90;;;;;;5069426;28;20245;-91
2023/03/23 10:41:47;;;;;;;2.03;1.80;;;15.80;99.90;;;;;;5049422;28;20276;-91
2023/03/23 10:44:19;;;;;;;2.13;1.70;;;15.80;99.90;;;;;;5053790;28;20185;-91
2023/03/23 10:46:48;;;;;;;2.03;1.53;;;15.90;99.90;;;;;;5052955;28;20170;-91
2023/03/23 10:49:19;;;;;;;3.07;1.50;;;15.90;99.90;;;;;;5069115;28;20185;-91
2023/03/23 10:51:53;;;;;;;3.73;1.67;;;16.10;99.90;;;;;;5069421;28;20169;-91
2023/03/23 10:54:36;;;;;;;2.47;1.60;;;16.10;99.90;;;;;;5052463;28;20178;-91
2023/03/23 10:57:24;;;;;;;2.33;1.60;;;16.20;99.90;;;;;;5069300;28;20166;-91
2023/03/23 10:59:50;;;;;;;2.23;1.60;;;16.40;99.90;;;;;;5052315;28;20201;-91
2023/03/23 11:02:20;;;;;;;2.30;1.50;;;16.40;99.90;;;;;;5051644;28;20174;-91
2023/03/23 11:04:56;;;;;;;3.10;1.83;;;16.50;99.90;;;;;;5052396;28;20194;-91
2023/03/23 11:07:32;;;;;;;2.37;1.70;;;16.60;99.90;;;;;;5052621;28;20200;-92
2023/03/23 11:10:08;;;;;;;1.33;1.23;;;16.70;99.90;;;;;;5053508;28;20184;-91
2023/03/23 11:12:34;;;;;;;2.03;1.80;;;16.60;99.90;;;;;;5059703;28;20224;-91
2023/03/23 11:15:30;;;;;;;2.38;1.70;;;16.60;99.90;;;;;;5048648;28;20202;-91
2023/03/23 11:18:01;;;;;;;3.73;1.70;;;16.70;99.90;;;;;;5014869;28;20190;-91
2023/03/23 11:20:29;;;;;;;4.10;2.72;;;16.70;99.90;;;;;;5015130;28;20251;-91
2023/03/23 11:22:56;;;;;;;1.88;1.50;;;16.70;99.90;;;;;;5032256;28;20174;-92
2023/03/23 11:25:22;;;;;;;2.90;1.77;;;16.70;99.90;;;;;;5032771;28;20290;-91
2023/03/23 11:27:50;;;;;;;1.60;1.50;;;16.80;99.90;;;;;;5031865;28;20241;-91
2023/03/23 11:30:34;;;;;;;4.22;1.80;;;16.80;99.90;;;;;;5015613;28;20171;-91
2023/03/23 11:33:02;;;;;;;1.73;1.63;;;16.90;99.90;;;;;;5031683;28;20234;-91
2023/03/23 11:35:29;;;;;;;1.95;1.75;;;16.90;99.90;;;;;;5014940;28;20206;-91
2023/03/23 11:37:58;;;;;;;1.75;1.40;;;17.00;99.90;;;;;;5017101;28;20182;-91
2023/03/23 11:40:29;;;;;;;3.80;1.90;;;17.20;99.90;;;;;;5031917;28;20175;-91
2023/03/23 11:43:07;;;;;;;2.95;1.70;;;17.20;99.90;;;;;;5043738;28;20215;-91
2023/03/23 11:45:36;;;;;;;1.70;1.60;;;17.20;99.90;;;;;;5051588;28;20197;-91
2023/03/23 11:48:14;;;;;;;2.30;1.63;;;17.20;99.90;;;;;;5051170;28;20182;-91
2023/03/23 11:51:40;;;;;;;2.03;1.58;;;17.20;99.90;;;;;;5051353;28;20162;-91
2023/03/23 11:54:16;;;;;;;3.90;1.58;;;17.20;99.90;;;;;;4971315;28;20180;-90
2023/03/23 11:56:45;;;;;;;1.92;1.52;;;17.10;99.90;;;;;;4971835;28;20169;-79
2023/03/23 11:59:14;;;;;;;2.47;2.00;;;17.10;99.90;;;;;;5015915;28;20303;-91
2023/03/23 12:02:35;;;;;;;4.03;1.75;;;17.10;99.90;;;;;;5031727;28;20170;-91
2023/03/23 12:21:50;;;;;;;1.77;1.50;;;17.30;99.90;;;;;;5010600;28;20297;-91
2023/03/23 12:29:22;;;;;;;2.25;1.60;;;17.20;99.90;;;;;;4942725;28;20242;-91
2023/03/23 12:44:14;;;;;;;2.60;1.83;;;17.00;99.90;;;;;;5051367;22;20240;-42
2023/03/23 12:47:06;;;;;;;2.88;1.90;;;17.10;99.90;;;;;;5071917;28;20585;-42
2023/03/23 12:49:42;;;;;;;1.85;1.73;;;17.10;99.90;;;;;;5088494;28;20279;-43
2023/03/23 12:52:13;;;;;;;3.47;1.70;;;17.10;99.90;;;;;;5101347;28;20203;-43
2023/03/23 12:55:11;;;;;;;1.75;1.65;;;17.10;99.90;;;;;;5090559;28;20168;-42
2023/03/23 12:57:47;;;;;;;2.28;1.90;;;17.10;99.90;;;;;;5033477;28;20189;-43
2023/03/23 13:00:34;;;;;;;2.10;1.70;;;17.20;99.90;;;;;;5066337;28;20201;-41
2023/03/23 13:03:24;;;;;;;1.77;1.45;;;17.30;99.90;;;;;;5069845;28;20284;-43
2023/03/23 13:05:56;;;;;;;2.65;1.60;;;17.40;99.90;;;;;;5071336;28;20207;-41
2023/03/23 13:08:28;;;;;;;1.70;1.50;;;17.40;99.90;;;;;;5088758;28;20232;-42
2023/03/23 13:10:58;;;;;;;2.05;1.73;;;17.50;99.90;;;;;;5090862;28;20203;-42
2023/03/23 13:13:47;;;;;;;2.05;1.63;;;17.50;99.90;;;;;;5085229;28;20531;-43
2023/03/23 13:16:43;;;;;;;2.05;1.70;;;17.50;99.90;;;;;;5089520;28;20181;-43
2023/03/23 13:19:47;;;;;;;2.58;1.45;;;17.60;99.90;;;;;;5070112;28;20265;-43
2023/03/23 13:22:19;;;;;;;2.75;1.67;;;17.70;99.90;;;;;;5089378;28;20188;-43
2023/03/23 13:24:55;;;;;;;1.98;1.80;;;17.70;99.90;;;;;;5072235;28;20195;-43
2023/03/23 13:27:29;;;;;;;3.80;1.80;;;17.60;99.90;;;;;;5075398;28;20240;-43
2023/03/23 13:29:57;;;;;;;2.10;1.48;;;17.60;99.90;;;;;;5076294;28;20203;-43
2023/03/23 13:32:45;;;;;;;2.70;1.60;;;17.60;99.90;;;;;;5093215;28;20292;-43
2023/03/23 13:35:18;;;;;;;2.33;1.50;;;17.60;99.90;;;;;;5094156;28;20183;-42
2023/03/23 13:37:52;;;;;;;2.47;1.67;;;17.60;99.90;;;;;;5075863;28;20185;-42
2023/03/23 13:40:41;;;;;;;2.00;1.70;;;17.60;99.90;;;;;;5094069;28;20207;-43
2023/03/23 13:43:08;;;;;;;3.28;1.75;;;17.60;99.90;;;;;;5072192;28;20219;-43
2023/03/23 13:45:46;;;;;;;2.20;1.98;;;17.60;99.90;;;;;;5085485;28;20195;-43
2023/03/23 13:48:12;;;;;;;3.10;1.70;;;17.60;99.90;;;;;;5075728;28;20251;-42
2023/03/23 13:51:04;;;;;;;1.80;1.70;;;17.60;99.90;;;;;;5093985;28;20294;-42
2023/03/23 13:53:34;;;;;;;3.33;2.00;;;17.50;99.90;;;;;;5072786;28;20185;-42
2023/03/23 13:56:08;;;;;;;2.65;2.10;;;17.50;99.90;;;;;;5075754;28;20176;-44
2023/03/23 13:59:03;;;;;;;2.00;1.80;;;17.50;99.90;;;;;;5075524;28;20208;-43
2023/03/23 14:01:36;;;;;;;2.42;1.85;;;17.50;99.90;;;;;;5075249;28;20197;-42
2023/03/23 14:04:06;;;;;;;2.13;1.92;;;17.50;99.90;;;;;;5092264;28;20180;-42
2023/03/23 14:06:36;;;;;;;2.20;1.85;;;17.50;99.90;;;;;;5093663;28;20180;-42
2023/03/23 14:09:27;;;;;;;3.95;2.28;;;17.50;99.90;;;;;;5091862;28;20204;-43
2023/03/23 14:12:08;;;;;;;2.92;1.70;;;17.60;99.90;;;;;;5089609;28;20339;-42
2023/03/23 14:15:01;;;;;;;3.63;2.83;;;17.60;99.90;;;;;;5067100;28;20191;-43
2023/03/23 14:17:34;;;;;;;2.30;2.10;;;17.60;99.90;;;;;;5093656;28;20253;-43
2023/03/23 14:20:01;;;;;;;4.53;2.03;;;17.60;99.90;;;;;;5075224;28;20231;-41
2023/03/23 14:22:45;;;;;;;2.50;2.08;;;17.60;99.90;;;;;;5071084;28;20817;-43
2023/03/23 14:25:17;;;;;;;2.13;1.90;;;17.50;99.90;;;;;;5093260;28;20177;-43
2023/03/23 14:27:45;;;;;;;3.97;2.08;;;17.50;99.90;;;;;;5074253;28;20176;-42
2023/03/23 14:30:18;;;;;;;2.88;2.00;;;17.40;99.90;;;;;;5072244;28;20235;-42
2023/03/23 14:32:45;;;;;;;2.28;2.08;;;17.40;99.90;;;;;;5077206;28;20208;-42
2023/03/23 14:35:27;;;;;;;3.13;1.75;;;17.40;99.90;;;;;;5059061;28;20172;-42
2023/03/23 14:37:55;;;;;;;3.60;2.38;;;17.40;99.90;;;;;;5097281;28;20188;-43
2023/03/23 14:40:22;;;;;;;2.65;1.80;;;17.40;99.90;;;;;;5096931;28;20196;-42
2023/03/23 14:42:50;;;;;;;3.83;2.33;;;17.30;99.90;;;;;;5081497;28;20262;-43
2023/03/23 14:45:19;;;;;;;2.20;1.90;;;17.30;99.90;;;;;;5079298;28;20220;-43
2023/03/23 14:48:00;;;;;;;2.58;1.80;;;17.30;99.90;;;;;;5083188;28;20181;-42
2023/03/23 14:50:41;;;;;;;3.35;2.10;;;17.20;99.90;;;;;;5101533;28;20172;-42
2023/03/23 14:53:21;;;;;;;3.38;2.97;;;17.20;99.90;;;;;;5103434;28;20191;-42
2023/03/23 14:55:49;;;;;;;3.92;2.05;;;17.20;99.90;;;;;;5100018;28;20229;-42
2023/03/23 14:58:17;;;;;;;3.50;1.90;;;17.20;99.90;;;;;;5102710;28;20322;-43
2023/03/23 15:00:59;;;;;;;3.67;2.30;;;17.20;99.90;;;;;;5092632;28;20177;-43
2023/03/23 15:03:26;;;;;;;4.10;2.33;;;17.20;99.90;;;;;;5089209;28;20209;-42
2023/03/23 15:05:56;;;;;;;2.30;2.10;;;17.10;99.90;;;;;;5055013;28;20252;-43
2023/03/23 15:08:31;;;;;;;2.38;2.03;;;17.10;99.90;;;;;;5068865;28;20239;-42
2023/03/23 15:11:07;;;;;;;2.38;2.05;;;17.00;99.90;;;;;;5082879;28;20172;-42
2023/03/23 15:13:37;;;;;;;2.72;2.00;;;17.00;99.90;;;;;;5070659;28;20184;-42
2023/03/23 15:16:13;;;;;;;3.00;1.90;;;16.90;99.90;;;;;;5080262;28;20188;-42
2023/03/23 15:18:40;;;;;;;2.50;2.17;;;16.90;99.90;;;;;;5071323;28;20203;-42
2023/03/23 15:21:29;;;;;;;2.92;1.80;;;16.90;99.90;;;;;;5089787;28;20176;-42
2023/03/23 15:23:57;;;;;;;3.22;2.00;;;16.80;99.90;;;;;;5071891;28;20215;-42
2023/03/23 15:26:43;;;;;;;2.63;2.28;;;16.80;99.90;;;;;;5073536;28;20192;-42
2023/03/23 15:29:18;;;;;;;2.10;1.90;;;16.80;99.90;;;;;;5051882;28;20241;-43
2023/03/23 15:31:55;;;;;;;2.67;1.90;;;16.70;99.90;;;;;;5086461;28;20204;-42
2023/03/23 15:34:45;;;;;;;2.10;1.90;;;16.70;99.90;;;;;;5089793;28;20177;-42